Time;durP1;ratioP1;P1;durP2;ratioP2;P2;SDS_P1;SDS_P2;PMS_P1;PMS_P2;Temp;Humidity;BMP_temperature;BMP_pressure;BME280_temperature;BME280_humidity;BME280_pressure;Samples;Min_cycle;Max_cycle;Signal;HPM_P1;HPM_P2
2021/11/01 00:00:50;;;;;;;7.40;6.80;;;9.20;99.90;;;;;;5000829;28;20662;-79
2021/11/01 00:03:16;;;;;;;7.30;6.30;;;9.20;99.90;;;;;;4999995;28;20231;-77
2021/11/01 00:05:42;;;;;;;7.57;6.97;;;9.20;99.90;;;;;;5001494;28;20221;-77
2021/11/01 00:08:08;;;;;;;7.20;6.60;;;9.20;99.90;;;;;;5000435;28;20173;-77
2021/11/01 00:10:34;;;;;;;9.10;7.23;;;9.20;99.90;;;;;;5001117;28;20223;-77
2021/11/01 00:13:00;;;;;;;8.10;7.27;;;9.20;99.90;;;;;;5001743;28;20180;-77
2021/11/01 00:15:26;;;;;;;7.77;7.07;;;9.20;99.90;;;;;;5000036;28;20184;-78
2021/11/01 00:17:52;;;;;;;7.47;6.83;;;9.20;99.90;;;;;;4999865;28;20208;-77
2021/11/01 00:20:18;;;;;;;7.10;6.40;;;9.20;99.90;;;;;;5000414;28;20211;-78
2021/11/01 00:22:44;;;;;;;7.27;6.17;;;9.20;99.90;;;;;;4998230;28;20246;-79
2021/11/01 00:25:10;;;;;;;6.87;6.17;;;9.20;99.90;;;;;;4994969;28;20210;-77
2021/11/01 00:27:36;;;;;;;6.77;6.17;;;9.20;99.90;;;;;;4995021;28;20175;-76
2021/11/01 00:30:05;;;;;;;7.30;6.53;;;9.10;99.90;;;;;;4995116;28;20195;-79
2021/11/01 00:32:31;;;;;;;6.30;5.80;;;9.10;99.90;;;;;;4995487;28;20172;-76
2021/11/01 00:34:58;;;;;;;6.83;6.23;;;9.10;99.90;;;;;;4995338;28;20192;-78
2021/11/01 00:37:25;;;;;;;7.63;6.30;;;9.00;99.90;;;;;;4994831;28;20242;-77
2021/11/01 00:39:51;;;;;;;7.07;6.47;;;9.10;99.90;;;;;;4993658;28;20195;-77
2021/11/01 00:42:17;;;;;;;7.43;6.83;;;9.10;99.90;;;;;;4995305;28;20272;-77
2021/11/01 00:44:43;;;;;;;8.03;6.67;;;9.10;99.90;;;;;;4995311;28;20207;-79
2021/11/01 00:47:11;;;;;;;7.57;6.97;;;9.10;99.90;;;;;;4995141;28;20179;-77
2021/11/01 00:49:37;;;;;;;8.60;6.60;;;9.10;99.90;;;;;;4994788;28;20211;-77
2021/11/01 00:52:04;;;;;;;8.17;7.47;;;9.10;99.90;;;;;;4994714;28;20180;-79
2021/11/01 00:54:29;;;;;;;8.10;7.40;;;9.10;99.90;;;;;;4994583;28;20258;-77
2021/11/01 00:56:55;;;;;;;6.90;6.30;;;9.10;99.90;;;;;;4994515;28;20618;-78
2021/11/01 00:59:21;;;;;;;7.63;6.93;;;9.10;99.90;;;;;;4994421;28;20227;-77
2021/11/01 01:01:47;;;;;;;14.00;6.80;;;9.20;99.90;;;;;;4994120;28;20219;-77
2021/11/01 01:04:14;;;;;;;7.30;6.70;;;9.20;99.90;;;;;;4994252;28;20183;-78
2021/11/01 01:06:40;;;;;;;6.83;6.23;;;9.20;99.90;;;;;;4994463;28;20191;-77
2021/11/01 01:09:05;;;;;;;6.83;6.20;;;9.20;99.90;;;;;;4994029;28;20176;-77
2021/11/01 01:11:31;;;;;;;7.07;6.47;;;9.30;99.90;;;;;;4994057;28;20231;-77
2021/11/01 01:13:57;;;;;;;7.33;6.63;;;9.30;99.90;;;;;;4994303;28;20188;-76
2021/11/01 01:16:28;;;;;;;7.03;6.33;;;9.30;99.90;;;;;;4994043;28;20204;-77
2021/11/01 01:18:59;;;;;;;6.60;6.10;;;9.30;99.90;;;;;;4993986;28;20635;-77
2021/11/01 01:24:10;;;;;;;7.10;6.43;;;9.20;99.90;;;;;;4993664;28;20218;-78
2021/11/01 01:26:37;;;;;;;6.87;6.27;;;9.30;99.90;;;;;;4992797;28;20179;-76
2021/11/01 01:29:04;;;;;;;7.77;6.97;;;9.20;99.90;;;;;;4992726;28;20183;-77
2021/11/01 01:31:31;;;;;;;6.83;6.23;;;9.20;99.90;;;;;;4993880;28;20245;-77
2021/11/01 01:33:57;;;;;;;7.03;6.30;;;9.20;99.90;;;;;;4993908;28;20188;-77
2021/11/01 01:36:23;;;;;;;7.37;6.67;;;9.30;99.90;;;;;;4993795;28;20258;-77
2021/11/01 01:38:50;;;;;;;6.73;6.23;;;9.20;99.90;;;;;;4992109;28;20578;-78
2021/11/01 01:41:19;;;;;;;6.60;6.00;;;9.20;99.90;;;;;;4993802;28;20198;-77
2021/11/01 01:43:46;;;;;;;8.53;7.10;;;9.30;99.90;;;;;;4993621;28;20183;-78
2021/11/01 01:46:13;;;;;;;6.87;6.27;;;9.40;99.90;;;;;;4992277;28;20200;-77
2021/11/01 01:48:39;;;;;;;7.40;6.70;;;9.30;99.90;;;;;;4993751;28;20219;-77
2021/11/01 01:51:06;;;;;;;7.07;6.47;;;9.30;99.90;;;;;;4992094;28;20302;-77
2021/11/01 01:53:32;;;;;;;7.97;7.27;;;9.30;99.90;;;;;;4992298;28;20210;-78
2021/11/01 01:55:58;;;;;;;8.17;7.10;;;9.30;99.90;;;;;;4993656;28;20698;-77
2021/11/01 01:58:26;;;;;;;7.53;6.80;;;9.30;99.90;;;;;;4993273;28;20180;-78
2021/11/01 02:03:33;;;;;;;7.43;6.83;;;9.30;99.90;;;;;;4993849;28;20567;-78
2021/11/01 02:06:12;;;;;;;7.40;6.77;;;9.30;99.90;;;;;;4992004;28;20199;-77
2021/11/01 02:09:21;;;;;;;6.93;6.33;;;9.30;99.90;;;;;;4993603;28;20172;-77
2021/11/01 02:11:49;;;;;;;7.00;6.40;;;9.30;99.90;;;;;;4993465;28;20168;-78
2021/11/01 02:14:18;;;;;;;6.27;5.67;;;9.40;99.90;;;;;;4993354;28;20230;-78
2021/11/01 02:16:49;;;;;;;6.80;6.20;;;9.40;99.90;;;;;;4992923;28;20171;-78
2021/11/01 02:19:17;;;;;;;6.00;5.50;;;9.40;99.90;;;;;;4993350;28;20174;-76
2021/11/01 02:21:53;;;;;;;6.80;6.20;;;9.40;99.90;;;;;;4996194;28;20176;-77
2021/11/01 02:24:40;;;;;;;6.53;5.80;;;9.30;99.90;;;;;;4997289;28;20266;-77
2021/11/01 02:27:10;;;;;;;6.80;6.03;;;9.30;99.90;;;;;;4995964;28;20176;-76
2021/11/01 02:29:36;;;;;;;6.50;5.87;;;9.30;99.90;;;;;;4997104;28;20193;-77
2021/11/01 02:32:04;;;;;;;5.93;5.53;;;9.30;99.90;;;;;;4995911;28;20179;-78
2021/11/01 02:34:29;;;;;;;5.80;5.17;;;9.30;99.90;;;;;;4995639;28;20598;-78
2021/11/01 02:36:55;;;;;;;6.37;5.77;;;9.30;99.90;;;;;;4993754;28;20268;-78
2021/11/01 02:39:21;;;;;;;5.83;5.33;;;9.30;99.90;;;;;;4983400;28;20230;-77
2021/11/01 02:41:47;;;;;;;7.63;5.63;;;9.30;99.90;;;;;;4997105;28;20203;-77
2021/11/01 02:44:13;;;;;;;5.93;5.43;;;9.30;99.90;;;;;;4996847;28;20230;-78
2021/11/01 02:46:43;;;;;;;6.30;5.80;;;9.30;99.90;;;;;;4993130;28;20177;-77
2021/11/01 02:49:08;;;;;;;6.23;5.60;;;9.30;99.90;;;;;;4982853;28;20180;-78
2021/11/01 02:51:35;;;;;;;5.80;5.30;;;9.40;99.90;;;;;;4994543;28;20245;-79
2021/11/01 02:54:03;;;;;;;6.60;5.70;;;9.30;99.90;;;;;;4994903;28;20834;-79
2021/11/01 02:56:28;;;;;;;6.70;5.63;;;9.30;99.90;;;;;;4994942;28;20176;-78
2021/11/01 02:58:54;;;;;;;5.90;5.33;;;9.30;99.90;;;;;;4996718;28;20538;-77
2021/11/01 03:01:21;;;;;;;5.80;5.30;;;9.30;99.90;;;;;;4996259;28;20191;-79
2021/11/01 03:03:47;;;;;;;6.43;5.93;;;9.30;99.90;;;;;;4996187;28;20539;-77
2021/11/01 03:06:18;;;;;;;6.40;5.60;;;9.30;99.90;;;;;;4996220;28;20195;-78
2021/11/01 03:08:44;;;;;;;9.67;7.80;;;9.30;99.90;;;;;;4996309;28;20197;-79
2021/11/01 03:11:12;;;;;;;11.40;9.10;;;9.40;99.90;;;;;;4996333;28;20663;-78
2021/11/01 03:13:38;;;;;;;12.27;9.60;;;9.40;99.90;;;;;;4996521;28;20194;-78
2021/11/01 03:16:06;;;;;;;9.23;7.20;;;9.40;99.90;;;;;;4996324;28;20184;-79
2021/11/01 03:18:42;;;;;;;6.53;5.93;;;9.40;99.90;;;;;;4996359;28;20182;-77
2021/11/01 03:21:10;;;;;;;6.87;6.23;;;9.40;99.90;;;;;;4995029;28;20270;-78
2021/11/01 03:23:39;;;;;;;5.93;5.33;;;9.50;99.90;;;;;;4995828;28;20207;-77
2021/11/01 03:26:09;;;;;;;6.17;5.57;;;9.30;99.90;;;;;;4989622;28;20291;-78
2021/11/01 03:28:37;;;;;;;5.80;5.30;;;9.40;99.90;;;;;;4994348;28;20172;-77
2021/11/01 03:31:06;;;;;;;5.37;4.87;;;9.30;99.90;;;;;;4977962;28;20564;-78
2021/11/01 03:33:37;;;;;;;5.97;5.30;;;9.30;99.90;;;;;;4990243;28;20187;-77
2021/11/01 03:36:05;;;;;;;5.50;5.00;;;9.30;99.90;;;;;;4995055;28;20184;-79
2021/11/01 03:38:32;;;;;;;6.10;5.50;;;9.30;99.90;;;;;;4994687;28;20258;-79
2021/11/01 03:40:59;;;;;;;5.87;5.37;;;9.30;99.90;;;;;;4994166;28;20226;-77
2021/11/01 03:43:36;;;;;;;6.00;5.17;;;9.20;99.90;;;;;;4995809;28;20171;-79
2021/11/01 03:46:04;;;;;;;5.17;4.77;;;9.20;99.90;;;;;;4995677;28;20258;-79
2021/11/01 03:48:36;;;;;;;6.17;5.57;;;9.20;99.90;;;;;;4994145;28;20180;-79
2021/11/01 03:51:08;;;;;;;5.70;5.17;;;9.10;99.90;;;;;;4994317;28;20212;-79
2021/11/01 03:53:35;;;;;;;5.47;4.97;;;9.00;99.90;;;;;;4994140;28;20180;-79
2021/11/01 03:56:01;;;;;;;6.27;5.77;;;9.00;99.90;;;;;;4993907;28;20241;-77
2021/11/01 03:58:26;;;;;;;6.13;5.63;;;9.00;99.90;;;;;;4995254;28;20658;-77
2021/11/01 04:00:52;;;;;;;6.50;5.87;;;9.10;99.90;;;;;;4993986;28;20199;-78
2021/11/01 04:03:25;;;;;;;7.00;5.50;;;9.10;99.90;;;;;;4995575;28;20332;-77
2021/11/01 04:05:56;;;;;;;5.77;5.27;;;9.10;99.90;;;;;;4994079;28;20196;-78
2021/11/01 04:08:22;;;;;;;6.27;5.70;;;9.10;99.90;;;;;;4995487;28;20177;-78
2021/11/01 04:10:48;;;;;;;5.73;5.27;;;9.20;99.90;;;;;;4995319;28;20210;-78
2021/11/01 04:13:14;;;;;;;6.00;5.33;;;9.20;99.90;;;;;;4995287;28;20251;-77
2021/11/01 04:15:45;;;;;;;6.63;5.50;;;9.20;99.90;;;;;;4995304;28;20263;-77
2021/11/01 04:18:16;;;;;;;6.23;5.17;;;9.20;99.90;;;;;;4994926;28;20183;-77
2021/11/01 04:20:53;;;;;;;5.50;5.00;;;9.20;99.90;;;;;;4982174;28;20648;-79
2021/11/01 04:23:23;;;;;;;6.57;5.00;;;9.30;99.90;;;;;;4994031;28;20187;-77
2021/11/01 04:25:48;;;;;;;5.67;5.27;;;9.30;99.90;;;;;;4995055;28;20246;-77
2021/11/01 04:28:14;;;;;;;8.27;5.20;;;9.30;99.90;;;;;;4995060;28;20592;-78
2021/11/01 04:30:42;;;;;;;6.27;5.77;;;9.30;99.90;;;;;;4994951;28;20271;-77
2021/11/01 04:33:12;;;;;;;8.23;6.70;;;9.30;99.90;;;;;;4993694;28;20660;-77
2021/11/01 04:35:39;;;;;;;6.33;5.70;;;9.30;99.90;;;;;;4993253;28;20195;-78
2021/11/01 04:43:35;;;;;;;10.50;9.50;;;9.40;99.90;;;;;;4994242;28;20176;-77
2021/11/01 04:54:15;;;;;;;14.60;13.10;;;10.00;99.90;;;;;;4994402;28;20639;-78
2021/11/01 04:56:42;;;;;;;13.37;12.10;;;10.00;99.90;;;;;;4993289;28;20250;-79
2021/11/01 04:59:09;;;;;;;15.90;12.90;;;10.10;99.90;;;;;;4994435;28;20635;-78
2021/11/01 05:01:45;;;;;;;14.37;12.87;;;10.20;99.90;;;;;;4991016;28;20242;-77
2021/11/01 05:04:17;;;;;;;12.13;10.93;;;10.30;99.90;;;;;;4991637;28;20179;-78
2021/11/01 05:06:50;;;;;;;13.50;12.13;;;10.40;99.90;;;;;;4990275;28;20184;-79
2021/11/01 05:09:21;;;;;;;13.10;11.90;;;10.40;99.90;;;;;;4993043;28;20226;-79
2021/11/01 05:14:27;;;;;;;12.57;11.23;;;10.40;99.90;;;;;;4994565;28;20215;-78
2021/11/01 05:17:03;;;;;;;11.87;10.73;;;10.40;99.90;;;;;;4993218;28;20174;-78
2021/11/01 05:19:32;;;;;;;9.40;8.60;;;10.40;99.90;;;;;;4993745;28;20179;-78
2021/11/01 05:24:38;;;;;;;8.70;7.80;;;10.50;99.90;;;;;;4994251;28;20182;-78
2021/11/01 05:29:47;;;;;;;7.57;6.97;;;10.60;99.90;;;;;;4993947;28;20254;-78
2021/11/01 05:32:17;;;;;;;7.37;6.67;;;10.70;99.90;;;;;;4992438;28;20263;-78
2021/11/01 05:34:43;;;;;;;6.40;5.90;;;10.70;99.90;;;;;;4993825;28;20277;-79
2021/11/01 05:37:09;;;;;;;6.40;5.80;;;10.70;99.90;;;;;;4993723;28;20264;-77
2021/11/01 05:39:35;;;;;;;5.67;5.17;;;10.80;99.90;;;;;;4993695;28;20199;-78
2021/11/01 05:42:01;;;;;;;5.10;4.67;;;10.70;99.90;;;;;;4993640;28;20175;-79
2021/11/01 05:44:26;;;;;;;4.03;3.47;;;10.70;99.90;;;;;;4992115;28;20251;-77
2021/11/01 05:46:53;;;;;;;4.20;3.90;;;10.80;99.90;;;;;;4993148;28;20593;-77
2021/11/01 05:49:22;;;;;;;4.10;3.80;;;10.80;99.90;;;;;;4993377;28;20188;-77
2021/11/01 05:51:48;;;;;;;6.20;3.30;;;10.80;99.90;;;;;;4993510;28;20198;-77
2021/11/01 05:54:17;;;;;;;3.70;3.17;;;10.80;99.90;;;;;;4993298;28;20550;-78
2021/11/01 05:57:11;;;;;;;3.20;2.90;;;10.80;99.90;;;;;;4992949;28;20177;-79
2021/11/01 06:00:06;;;;;;;4.47;3.00;;;10.80;99.90;;;;;;4993379;28;20268;-78
2021/11/01 06:02:37;;;;;;;3.27;2.50;;;10.80;99.90;;;;;;4993264;28;20600;-78
2021/11/01 06:05:10;;;;;;;2.03;1.93;;;10.80;99.90;;;;;;4993306;28;20353;-79
2021/11/01 06:07:53;;;;;;;2.43;1.50;;;10.80;99.90;;;;;;4992167;28;20577;-78
2021/11/01 06:15:47;;;;;;;1.63;1.53;;;10.80;99.90;;;;;;4993497;28;20175;-77
2021/11/01 06:18:13;;;;;;;1.03;0.93;;;10.80;99.90;;;;;;4992022;28;20546;-77
2021/11/01 06:20:39;;;;;;;1.27;1.07;;;10.70;99.90;;;;;;4993325;28;20713;-76
2021/11/01 06:23:05;;;;;;;1.00;0.80;;;10.70;99.90;;;;;;4993351;28;20176;-77
2021/11/01 06:25:30;;;;;;;0.83;0.80;;;10.70;99.90;;;;;;4992987;28;20196;-76
2021/11/01 06:27:56;;;;;;;1.47;0.70;;;10.70;99.90;;;;;;4993419;28;20174;-76
2021/11/01 06:30:27;;;;;;;1.40;0.70;;;10.80;99.90;;;;;;4993129;28;20330;-77
2021/11/01 06:43:44;;;;;;;1.30;1.20;;;10.70;99.90;;;;;;4980704;28;20290;-78
2021/11/01 06:57:32;;;;;;;0.60;0.60;;;10.80;99.90;;;;;;4976542;28;20180;-78
2021/11/01 07:16:17;;;;;;;0.97;0.30;;;10.70;99.90;;;;;;4997653;28;20235;-79
2021/11/01 07:18:54;;;;;;;0.97;0.30;;;10.60;99.90;;;;;;4997956;28;20189;-79
2021/11/01 08:21:02;;;;;;;0.67;0.43;;;10.10;99.90;;;;;;4983391;28;20296;-78
2021/11/01 09:03:37;;;;;;;0.93;0.50;;;9.90;99.90;;;;;;4975811;28;20183;-78
2021/11/01 09:06:25;;;;;;;0.97;0.43;;;10.00;99.90;;;;;;4976902;28;20188;-79
2021/11/01 09:19:52;;;;;;;1.13;0.43;;;10.00;99.90;;;;;;4994860;28;20278;-79
2021/11/01 09:25:09;;;;;;;1.13;0.40;;;10.10;99.90;;;;;;4995521;28;20234;-77
2021/11/01 09:27:36;;;;;;;0.50;0.50;;;10.00;99.90;;;;;;4993923;28;20537;-78
2021/11/01 09:30:23;;;;;;;1.53;0.40;;;10.00;99.90;;;;;;4994936;28;20196;-79
2021/11/01 09:43:51;;;;;;;1.87;0.70;;;10.20;99.90;;;;;;4988468;28;20630;-78
2021/11/01 09:46:19;;;;;;;2.10;0.77;;;10.20;99.90;;;;;;4991962;28;20207;-78
2021/11/01 09:48:45;;;;;;;1.53;0.50;;;10.20;99.90;;;;;;4994446;28;20183;-78
2021/11/01 09:51:11;;;;;;;0.30;0.30;;;10.20;99.90;;;;;;4994043;28;20591;-78
2021/11/01 09:53:40;;;;;;;2.30;0.20;;;10.20;99.90;;;;;;4989591;28;20188;-78
2021/11/01 09:59:13;;;;;;;1.27;0.40;;;10.20;99.90;;;;;;4982145;28;20674;-76
2021/11/01 10:01:45;;;;;;;0.50;0.47;;;10.20;99.90;;;;;;4993809;28;20155;-77
2021/11/01 10:04:27;;;;;;;0.87;0.37;;;10.20;99.90;;;;;;4993562;28;20733;-77
2021/11/01 10:07:19;;;;;;;1.60;0.50;;;10.20;99.90;;;;;;4991263;28;20210;-76
2021/11/01 10:09:57;;;;;;;0.53;0.30;;;10.30;99.90;;;;;;4986160;28;20234;-79
2021/11/01 10:12:34;;;;;;;1.40;0.60;;;10.20;99.90;;;;;;4986223;28;20187;-79
2021/11/01 10:18:05;;;;;;;1.00;0.40;;;10.10;99.90;;;;;;4987021;28;20555;-78
2021/11/01 10:20:35;;;;;;;0.43;0.30;;;10.10;99.90;;;;;;4988991;28;20231;-77
2021/11/01 10:23:01;;;;;;;2.33;0.30;;;10.20;99.90;;;;;;4985055;28;20653;-77
2021/11/01 10:25:27;;;;;;;1.33;0.40;;;10.20;99.90;;;;;;4988308;28;20690;-76
2021/11/01 10:27:59;;;;;;;1.70;0.33;;;10.10;99.90;;;;;;4984882;28;20235;-78
2021/11/01 10:30:28;;;;;;;0.30;0.30;;;10.10;99.90;;;;;;4982705;28;20248;-78
2021/11/01 10:32:55;;;;;;;0.77;0.30;;;10.20;99.90;;;;;;4985670;28;20192;-78
2021/11/01 10:35:31;;;;;;;0.47;0.30;;;10.30;99.90;;;;;;4985287;28;20188;-79
2021/11/01 10:40:57;;;;;;;0.87;0.30;;;10.30;99.90;;;;;;4983445;28;20212;-79
2021/11/01 11:49:26;;;;;;;3.13;2.40;;;10.40;99.90;;;;;;4991051;28;20191;-78
2021/11/01 11:51:57;;;;;;;1.70;1.60;;;10.40;99.90;;;;;;5005001;28;20681;-78
2021/11/01 11:54:35;;;;;;;1.20;0.90;;;10.40;99.90;;;;;;4992371;28;20211;-77
2021/11/01 11:57:05;;;;;;;261.90;112.67;;;10.40;99.90;;;;;;4992799;28;20258;-78
2021/11/01 11:59:38;;;;;;;4.47;3.90;;;10.40;99.90;;;;;;4983717;28;20597;-78
2021/11/01 12:02:09;;;;;;;1.70;1.43;;;10.40;99.90;;;;;;4985239;28;20188;-78
2021/11/01 12:04:41;;;;;;;2.07;1.30;;;10.40;99.90;;;;;;4989802;28;20180;-78
2021/11/01 12:07:12;;;;;;;4.73;3.47;;;10.40;99.90;;;;;;4991255;28;20635;-77
2021/11/01 12:09:55;;;;;;;5.07;2.90;;;10.40;99.90;;;;;;4994469;28;20193;-76
2021/11/01 12:17:52;;;;;;;2.17;1.70;;;10.50;99.90;;;;;;4995758;28;20722;-75
2021/11/01 12:20:22;;;;;;;1.63;1.43;;;10.50;99.90;;;;;;4994066;28;20648;-75
2021/11/01 12:22:50;;;;;;;2.73;1.70;;;10.50;99.90;;;;;;4994376;28;20256;-75
2021/11/01 12:25:19;;;;;;;2.00;1.70;;;10.50;99.90;;;;;;4993879;28;20225;-75
2021/11/01 12:27:56;;;;;;;3.10;1.40;;;10.50;99.90;;;;;;4994830;28;20800;-75
2021/11/01 12:30:24;;;;;;;4.67;1.90;;;10.50;99.90;;;;;;4993797;28;20200;-77
2021/11/01 12:32:51;;;;;;;1.97;1.77;;;10.50;99.90;;;;;;4992244;28;20682;-75
2021/11/01 12:35:27;;;;;;;3.77;2.50;;;10.50;99.90;;;;;;4992794;28;20203;-75
2021/11/01 12:38:09;;;;;;;2.70;2.50;;;10.50;99.90;;;;;;4994943;28;20184;-75
2021/11/01 12:57:16;;;;;;;0.80;0.80;;;10.50;99.90;;;;;;4990647;28;20206;-75
2021/11/01 12:59:45;;;;;;;3.53;1.23;;;10.50;99.90;;;;;;4993073;28;20218;-77
2021/11/01 13:02:31;;;;;;;1.27;1.17;;;10.50;99.90;;;;;;4993636;28;20194;-76
2021/11/01 13:05:04;;;;;;;1.07;0.90;;;10.50;99.90;;;;;;4992282;28;20196;-74
2021/11/01 13:12:51;;;;;;;1.83;1.03;;;10.50;99.90;;;;;;4993100;28;20526;-75
2021/11/01 13:18:14;;;;;;;1.43;1.20;;;10.40;99.90;;;;;;4990103;28;20239;-75
2021/11/01 13:20:58;;;;;;;1.10;1.00;;;10.40;99.90;;;;;;4993218;28;20207;-75
2021/11/01 13:23:27;;;;;;;3.03;1.40;;;10.40;99.90;;;;;;4991709;28;20229;-75
2021/11/01 13:26:16;;;;;;;1.20;1.10;;;10.40;99.90;;;;;;4992241;28;20231;-74
2021/11/01 13:28:51;;;;;;;1.43;0.97;;;10.40;99.90;;;;;;4994319;28;20174;-76
2021/11/01 13:36:49;;;;;;;1.20;1.10;;;10.30;99.90;;;;;;4987730;28;20526;-75
2021/11/01 13:39:29;;;;;;;2.97;1.23;;;10.30;99.90;;;;;;4992697;28;20264;-75
2021/11/01 13:41:55;;;;;;;2.00;1.30;;;10.30;99.90;;;;;;4994878;28;20255;-76
2021/11/01 13:44:26;;;;;;;1.57;1.47;;;10.30;99.90;;;;;;4991816;28;20199;-75
2021/11/01 13:46:56;;;;;;;1.77;1.23;;;10.20;99.90;;;;;;4989855;28;20205;-76
2021/11/01 13:49:22;;;;;;;2.90;1.50;;;10.20;99.90;;;;;;4991612;28;20620;-76
2021/11/01 13:51:51;;;;;;;2.33;2.07;;;10.30;99.90;;;;;;4992491;28;20195;-78
2021/11/01 13:54:37;;;;;;;2.37;1.57;;;10.30;99.90;;;;;;4990611;28;20176;-75
2021/11/01 13:57:05;;;;;;;2.07;1.77;;;10.30;99.90;;;;;;4992635;28;20884;-76
2021/11/01 14:18:16;;;;;;;2.63;1.60;;;10.20;99.90;;;;;;4997429;28;20325;-78
2021/11/01 14:34:52;;;;;;;1.47;1.33;;;10.10;99.90;;;;;;4975540;28;20252;-78
2021/11/01 15:14:50;;;;;;;2.47;1.70;;;10.20;99.90;;;;;;4996617;28;20264;-77
2021/11/01 15:22:47;;;;;;;1.47;1.37;;;10.30;99.90;;;;;;4992181;28;20204;-78
2021/11/01 15:26:03;;;;;;;2.77;1.70;;;10.30;99.90;;;;;;4995528;28;20202;-77
2021/11/01 15:33:57;;;;;;;2.30;1.60;;;10.40;99.90;;;;;;4990267;28;20222;-78
2021/11/01 15:39:39;;;;;;;3.53;2.53;;;10.40;99.90;;;;;;4984363;28;20207;-79
2021/11/01 16:15:48;;;;;;;4.10;2.00;;;10.30;99.90;;;;;;4981588;28;20188;-79
2021/11/01 16:18:09;;;;;;;42.07;22.73;;;10.30;99.90;;;;;;4988577;28;20640;-79
2021/11/01 16:20:34;;;;;;;8.37;6.53;;;10.30;99.90;;;;;;4988172;28;20200;-78
2021/11/01 16:25:39;;;;;;;3.30;2.23;;;10.30;99.90;;;;;;4988640;28;20199;-78
2021/11/01 16:28:05;;;;;;;2.13;2.00;;;10.20;99.90;;;;;;4987871;28;20181;-79
2021/11/01 16:30:33;;;;;;;5.10;4.70;;;10.20;99.90;;;;;;4991944;28;20211;-79
2021/11/01 16:33:02;;;;;;;3.17;2.97;;;10.20;99.90;;;;;;4981313;28;20242;-78
2021/11/01 16:35:35;;;;;;;3.03;2.30;;;10.20;99.90;;;;;;4992183;28;20699;-79
2021/11/01 16:40:39;;;;;;;2.00;1.80;;;10.20;99.90;;;;;;4987484;28;20195;-79
2021/11/01 16:43:13;;;;;;;2.83;1.93;;;10.10;99.90;;;;;;4984409;28;20267;-78
2021/11/01 16:45:39;;;;;;;5.23;2.20;;;10.10;99.90;;;;;;4983491;28;20250;-78
2021/11/01 16:48:07;;;;;;;2.63;2.03;;;10.10;99.90;;;;;;4967574;28;20200;-79
2021/11/01 16:50:34;;;;;;;2.47;2.20;;;10.10;99.90;;;;;;4985434;28;20207;-79
2021/11/01 16:53:00;;;;;;;2.23;2.03;;;10.20;99.90;;;;;;5003074;28;20186;-77
2021/11/01 16:55:38;;;;;;;2.53;1.90;;;10.20;99.90;;;;;;4990562;28;20670;-79
2021/11/01 16:58:20;;;;;;;2.67;2.47;;;10.20;99.90;;;;;;4984643;28;20403;-79
2021/11/01 17:01:01;;;;;;;4.20;3.23;;;10.20;99.90;;;;;;4993985;28;20204;-78
2021/11/01 17:03:40;;;;;;;3.90;3.60;;;10.20;99.90;;;;;;4990845;28;20183;-78
2021/11/01 17:22:40;;;;;;;10.37;9.37;;;10.10;99.90;;;;;;4987191;28;20263;-79
2021/11/01 17:25:23;;;;;;;11.13;10.03;;;10.10;99.90;;;;;;4979815;28;20904;-80
2021/11/01 17:31:02;;;;;;;14.10;12.70;;;10.10;99.90;;;;;;4984484;28;20825;-78
2021/11/01 17:36:28;;;;;;;9.03;7.93;;;10.10;99.90;;;;;;4976371;28;20188;-77
2021/11/01 18:52:01;;;;;;;6.80;6.20;;;9.90;99.90;;;;;;4989796;28;20268;-79
2021/11/01 18:54:38;;;;;;;6.03;5.43;;;9.80;99.90;;;;;;4985832;28;20184;-77
2021/11/01 18:57:05;;;;;;;6.87;4.77;;;9.80;99.90;;;;;;4985888;28;20891;-80
2021/11/01 18:59:35;;;;;;;4.83;4.53;;;9.90;99.90;;;;;;4991005;28;20172;-80
2021/11/01 19:04:37;;;;;;;5.97;4.60;;;9.80;99.90;;;;;;4996890;28;20175;-79
2021/11/01 19:07:12;;;;;;;4.80;4.40;;;9.80;99.90;;;;;;4996504;28;20196;-78
2021/11/01 19:09:49;;;;;;;4.80;4.40;;;9.80;99.90;;;;;;4998451;28;20195;-79
2021/11/01 20:04:58;;;;;;;8.13;7.43;;;9.00;99.90;;;;;;4990299;28;20280;-79
2021/11/01 21:25:13;;;;;;;4.60;3.97;;;8.70;99.90;;;;;;5000381;28;20273;-81
2021/11/01 21:27:39;;;;;;;4.70;3.50;;;8.70;99.90;;;;;;5000713;28;20234;-81
2021/11/01 21:30:06;;;;;;;4.97;3.63;;;8.70;99.90;;;;;;5000419;28;20283;-83
2021/11/01 21:32:32;;;;;;;6.10;3.80;;;8.70;99.90;;;;;;5015412;28;20233;-82
2021/11/01 21:35:07;;;;;;;6.37;4.50;;;8.70;99.90;;;;;;4999934;28;20262;-80
2021/11/01 21:37:32;;;;;;;4.80;4.40;;;8.70;99.90;;;;;;5000180;28;20662;-81
2021/11/01 21:40:00;;;;;;;4.90;4.50;;;8.70;99.90;;;;;;4999963;28;20195;-81
2021/11/01 21:42:26;;;;;;;5.07;4.67;;;8.70;99.90;;;;;;5001385;28;20266;-81
2021/11/01 21:44:52;;;;;;;6.37;5.70;;;8.60;99.90;;;;;;4998579;28;20188;-79
2021/11/01 21:47:19;;;;;;;5.77;5.23;;;8.50;99.90;;;;;;4999609;28;20268;-81
2021/11/01 21:49:46;;;;;;;6.07;5.57;;;8.30;99.90;;;;;;4999273;28;20239;-80
2021/11/01 21:52:12;;;;;;;6.13;5.20;;;8.10;99.90;;;;;;4996833;28;20229;-80
2021/11/01 22:21:41;;;;;;;8.00;7.30;;;7.70;99.90;;;;;;4995763;28;20301;-81
2021/11/01 22:42:43;;;;;;;9.73;9.03;;;7.60;99.90;;;;;;4993964;28;20182;-79
2021/11/01 22:58:06;;;;;;;27.53;11.23;;;7.60;99.90;;;;;;5001883;28;20242;-82
2021/11/01 23:00:49;;;;;;;11.77;10.77;;;7.50;99.90;;;;;;5000882;28;20206;-79
2021/11/01 23:03:20;;;;;;;15.63;11.23;;;7.50;99.90;;;;;;5002455;28;20242;-79
2021/11/01 23:32:53;;;;;;;12.03;10.93;;;7.50;99.90;;;;;;5002160;28;20187;-81
2021/11/01 23:35:19;;;;;;;11.67;10.57;;;7.50;99.90;;;;;;5000398;28;20282;-80
2021/11/01 23:37:45;;;;;;;12.10;11.00;;;7.60;99.90;;;;;;4999301;28;20273;-80
2021/11/01 23:40:11;;;;;;;12.17;11.03;;;7.50;99.90;;;;;;5001127;28;20294;-82
2021/11/01 23:42:37;;;;;;;10.40;9.53;;;7.50;99.90;;;;;;5001888;28;20183;-79
2021/11/01 23:45:03;;;;;;;11.70;10.60;;;7.50;99.90;;;;;;5000553;28;20255;-80
2021/11/01 23:47:29;;;;;;;12.30;11.10;;;7.50;99.90;;;;;;5000984;28;20168;-81
2021/11/01 23:49:54;;;;;;;10.90;10.00;;;7.50;99.90;;;;;;4999969;28;20215;-80
2021/11/01 23:52:22;;;;;;;10.70;9.70;;;7.50;99.90;;;;;;5000135;28;20190;-80
2021/11/01 23:54:48;;;;;;;12.63;9.57;;;7.60;99.90;;;;;;5000859;28;20167;-81
2021/11/01 23:57:16;;;;;;;11.53;10.53;;;7.40;99.90;;;;;;4998909;28;20180;-80
2021/11/01 23:59:45;;;;;;;11.53;10.50;;;7.50;99.90;;;;;;4999840;28;20638;-81
